Time;durP1;ratioP1;P1;durP2;ratioP2;P2;SDS_P1;SDS_P2;PMS_P1;PMS_P2;Temp;Humidity;BMP_temperature;BMP_pressure;BME280_temperature;BME280_humidity;BME280_pressure;Samples;Min_cycle;Max_cycle;Signal;HPM_P1;HPM_P2
2021/04/14 00:03:45;;;;;;;27.27;15.20;;;;;;;10.52;71.49;99590.45;4052858;86;28664;-85
2021/04/14 00:09:48;;;;;;;27.45;15.35;;;;;;;10.47;71.93;99587.61;4057397;85;28639;-82
2021/04/14 00:15:54;;;;;;;26.35;15.32;;;;;;;10.41;71.61;99579.02;4115002;85;28648;-84
2021/04/14 00:21:56;;;;;;;;;;;;;;;10.59;71.40;99579.64;4043456;87;28653;-81
2021/04/14 00:27:59;;;;;;;22.02;13.48;;;;;;;10.36;74.34;99581.52;4102982;85;20196;-83
2021/04/14 00:34:05;;;;;;;23.35;13.20;;;;;;;10.39;74.74;99565.78;4106253;85;28583;-84
2021/04/14 00:40:12;;;;;;;24.63;14.43;;;;;;;10.44;74.01;99567.86;4127017;85;28660;-83
2021/04/14 00:46:15;;;;;;;27.73;13.75;;;;;;;10.45;72.79;99568.16;4106714;85;28680;-86
2021/04/14 00:52:17;;;;;;;23.65;13.20;;;;;;;10.25;74.65;99567.73;4110027;85;28654;-84
2021/04/14 00:58:20;;;;;;;24.50;13.40;;;;;;;10.10;76.95;99560.49;4116435;85;28640;-85
2021/04/14 01:04:23;;;;;;;22.90;13.08;;;;;;;10.32;75.11;99558.30;4104633;85;28641;-86
2021/04/14 01:10:25;;;;;;;23.07;12.63;;;;;;;10.49;72.74;99557.29;4103206;85;28579;-87
2021/04/14 01:16:27;;;;;;;20.37;12.63;;;;;;;10.08;76.89;99562.58;4102158;85;28586;-87
2021/04/14 01:22:33;;;;;;;23.15;13.13;;;;;;;10.52;72.38;99553.35;4109546;85;28593;-86
2021/04/14 01:28:38;;;;;;;22.20;13.08;;;;;;;10.64;70.44;99554.28;4103243;85;28708;-87
2021/04/14 01:34:40;;;;;;;23.87;14.05;;;;;;;10.27;74.95;99552.23;4109028;85;28649;-86
2021/04/14 01:40:43;;;;;;;23.60;13.20;;;;;;;10.09;77.07;99546.22;4101790;85;28716;-87
2021/04/14 01:46:45;;;;;;;21.27;12.70;;;;;;;10.54;71.68;99548.58;4111082;85;28609;-85
2021/04/14 01:52:48;;;;;;;25.97;14.98;;;;;;;10.82;69.14;99540.57;4102378;85;28971;-85
2021/04/14 01:58:51;;;;;;;24.18;14.35;;;;;;;10.26;75.25;99543.87;4098228;85;28639;-86
2021/04/14 02:04:53;;;;;;;24.87;14.07;;;;;;;10.28;75.08;99535.06;4101044;85;28586;-85
2021/04/14 02:10:56;;;;;;;27.45;14.53;;;;;;;10.28;74.82;99527.00;4098106;85;28635;-84
2021/04/14 02:17:00;;;;;;;23.73;13.43;;;;;;;9.90;78.16;99525.16;4090121;85;28604;-84
2021/04/14 02:23:24;;;;;;;22.42;13.53;;;;;;;9.80;79.98;99521.60;4100901;85;28680;-85
2021/04/14 02:29:26;;;;;;;24.85;14.15;;;;;;;10.02;77.47;99512.68;4102145;85;28593;-84
2021/04/14 02:35:29;;;;;;;24.67;14.28;;;;;;;10.07;76.80;99507.20;4094336;85;28612;-86
2021/04/14 02:41:31;;;;;;;24.95;13.72;;;;;;;10.35;74.71;99507.30;4101392;85;28694;-86
2021/04/14 02:47:33;;;;;;;23.77;13.18;;;;;;;9.96;78.87;99497.95;4103779;85;28652;-85
2021/04/14 02:53:35;;;;;;;25.62;13.95;;;;;;;10.19;76.61;99506.27;4113224;85;28659;-87
2021/04/14 02:59:37;;;;;;;22.42;12.70;;;;;;;10.31;74.91;99505.59;4093947;85;28583;-86
2021/04/14 03:05:39;;;;;;;23.30;12.93;;;;;;;10.34;75.15;99498.44;4107920;85;28623;-87
2021/04/14 03:11:41;;;;;;;24.50;13.43;;;;;;;10.50;72.71;99495.75;4120116;85;28591;-86
2021/04/14 03:17:43;;;;;;;23.52;13.03;;;;;;;10.22;74.65;99495.61;4119620;85;28601;-86
2021/04/14 03:23:45;;;;;;;20.65;12.50;;;;;;;10.70;70.01;99500.95;4082310;85;28622;-86
2021/04/14 03:29:47;;;;;;;20.55;12.78;;;;;;;10.01;75.99;99497.61;4098867;86;28577;-86
2021/04/14 03:35:49;;;;;;;26.17;14.20;;;;;;;10.70;70.41;99502.30;4109674;85;28671;-86
2021/04/14 03:41:51;;;;;;;24.12;14.10;;;;;;;10.58;70.37;99501.38;4103961;85;29000;-87
2021/04/14 03:47:53;;;;;;;23.73;13.80;;;;;;;10.25;73.93;99498.39;4107077;86;28668;-85
2021/04/14 03:53:56;;;;;;;23.73;13.70;;;;;;;10.40;72.48;99500.23;4096592;86;28619;-86
2021/04/14 03:59:58;;;;;;;21.85;12.93;;;;;;;10.28;73.40;99504.16;4091576;86;28586;-84
2021/04/14 04:06:00;;;;;;;24.12;13.10;;;;;;;10.55;71.36;99503.97;4095262;86;28608;-87
2021/04/14 04:12:07;;;;;;;20.90;12.55;;;;;;;10.69;69.80;99510.61;4095542;86;28643;-85
2021/04/14 04:18:08;;;;;;;20.92;11.83;;;;;;;10.40;71.71;99502.92;4099613;85;28616;-86
2021/04/14 04:24:10;;;;;;;19.27;12.25;;;;;;;10.50;71.15;99511.05;4104261;86;28676;-88
2021/04/14 04:30:14;;;;;;;19.30;11.43;;;;;;;10.69;69.37;99517.33;4088826;86;28687;-87
2021/04/14 04:36:16;;;;;;;18.73;10.45;;;;;;;10.58;70.72;99521.54;4102654;86;28617;-88
2021/04/14 04:42:18;;;;;;;15.18;9.90;;;;;;;10.60;70.69;99522.97;4095654;86;28605;-83
2021/04/14 04:48:20;;;;;;;16.52;9.98;;;;;;;10.57;70.82;99531.48;4069857;86;28628;-87
2021/04/14 04:54:22;;;;;;;20.45;11.10;;;;;;;10.34;73.20;99533.38;4111062;85;28644;-86
2021/04/14 05:00:26;;;;;;;14.90;8.98;;;;;;;10.53;70.84;99532.95;4100693;85;28605;-86
2021/04/14 05:06:28;;;;;;;15.95;9.28;;;;;;;10.43;71.81;99537.48;4099392;85;28601;-87
2021/04/14 05:12:30;;;;;;;14.85;9.48;;;;;;;10.94;68.78;99542.03;4103724;85;28590;-86
2021/04/14 05:18:34;;;;;;;16.42;9.23;;;;;;;11.09;68.14;99542.52;4100064;85;28611;-87
2021/04/14 05:24:36;;;;;;;15.23;8.93;;;;;;;10.79;69.79;99545.89;4111458;85;28567;-85
2021/04/14 05:30:39;;;;;;;13.75;7.92;;;;;;;10.25;73.76;99555.63;4110777;86;28595;-85
2021/04/14 05:36:42;;;;;;;16.35;8.80;;;;;;;10.46;71.34;99553.16;4109023;85;28973;-85
2021/04/14 05:42:47;;;;;;;16.65;9.53;;;;;;;10.97;68.25;99556.38;4110049;86;28681;-83
2021/04/14 05:48:50;;;;;;;14.10;8.28;;;;;;;10.96;67.61;99558.77;4072332;85;28706;-85
2021/04/14 05:54:52;;;;;;;14.75;8.40;;;;;;;10.69;69.90;99560.35;4104246;85;28605;-83
2021/04/14 06:00:55;;;;;;;13.90;7.92;;;;;;;10.32;72.18;99555.62;4114670;85;28624;-85
2021/04/14 06:06:57;;;;;;;14.63;8.75;;;;;;;11.09;67.52;99568.59;4109073;85;28604;-85
2021/04/14 06:12:59;;;;;;;13.68;8.43;;;;;;;10.71;69.12;99568.48;4114089;86;28570;-84
2021/04/14 06:19:02;;;;;;;12.07;7.00;;;;;;;11.00;67.81;99573.45;4053920;87;28618;-85
2021/04/14 06:25:06;;;;;;;10.95;7.05;;;;;;;10.82;70.37;99572.84;4098451;84;28577;-85
2021/04/14 06:31:11;;;;;;;12.23;6.42;;;;;;;11.48;64.76;99577.83;4135669;86;28577;-86
2021/04/14 06:37:14;;;;;;;9.43;5.65;;;;;;;11.30;66.29;99575.45;4098723;85;28654;-86
2021/04/14 06:43:42;;;;;;;11.43;6.25;;;;;;;11.65;63.78;99576.70;4092430;86;28615;-86
2021/04/14 06:49:58;;;;;;;8.58;5.50;;;;;;;11.54;64.34;99575.59;4019605;87;28640;-84
2021/04/14 06:56:09;;;;;;;9.30;5.10;;;;;;;11.28;67.34;99577.51;4033828;88;28645;-85
2021/04/14 07:02:16;;;;;;;7.87;4.45;;;;;;;11.62;64.89;99574.47;4037844;88;28615;-85
2021/04/14 07:08:28;;;;;;;5.75;3.87;;;;;;;12.09;61.42;99566.67;4063991;86;28621;-85
2021/04/14 07:14:31;;;;;;;7.80;4.50;;;;;;;12.05;61.03;99566.01;4088738;86;28601;-84
2021/04/14 07:20:43;;;;;;;6.35;3.67;;;;;;;11.84;61.92;99568.91;4112833;86;28664;-87
2021/04/14 07:27:06;;;;;;;6.62;3.30;;;;;;;12.16;60.28;99569.78;4032208;87;28631;-85
2021/04/14 07:33:26;;;;;;;6.30;3.80;;;;;;;11.98;60.86;99568.77;4034247;86;28613;-84
2021/04/14 07:39:42;;;;;;;4.85;3.33;;;;;;;12.00;61.85;99576.89;4089917;86;28610;-84
2021/04/14 07:45:44;;;;;;;6.12;3.65;;;;;;;11.93;61.72;99576.18;4066707;87;28593;-88
2021/04/14 07:51:48;;;;;;;7.37;4.47;;;;;;;12.12;60.70;99579.69;4088553;86;28625;-87
2021/04/14 07:57:50;;;;;;;8.23;4.70;;;;;;;12.35;60.57;99583.52;4054388;86;28607;-87
2021/04/14 08:03:55;;;;;;;5.28;3.50;;;;;;;12.62;60.55;99583.13;4126177;86;28631;-86
2021/04/14 08:10:18;;;;;;;5.55;3.10;;;;;;;10.98;69.08;99597.03;4052095;87;28586;-86
2021/04/14 08:16:39;;;;;;;4.50;2.83;;;;;;;10.38;76.09;99595.59;4089726;86;28686;-88
2021/04/14 08:22:43;;;;;;;4.78;2.70;;;;;;;11.12;70.62;99591.85;4116541;85;28690;-87
2021/04/14 08:28:46;;;;;;;4.67;2.62;;;;;;;10.63;72.24;99599.70;4118254;86;28601;-91
2021/04/14 08:34:59;;;;;;;3.83;2.33;;;;;;;10.21;74.97;99600.11;4122075;86;28610;-88
2021/04/14 08:41:04;;;;;;;5.87;2.52;;;;;;;12.05;63.48;99595.11;4116449;86;28656;-86
2021/04/14 08:47:24;;;;;;;4.43;2.50;;;;;;;10.90;71.28;99598.14;4122172;86;28598;-89
2021/04/14 08:53:36;;;;;;;4.03;2.45;;;;;;;11.72;66.43;99599.01;4131865;84;28575;-89
2021/04/14 08:59:41;;;;;;;3.33;1.90;;;;;;;12.26;59.91;99595.67;4081131;86;28637;-88
2021/04/14 09:05:48;;;;;;;2.90;1.60;;;;;;;11.26;66.85;99584.99;4091080;86;28589;-84
2021/04/14 09:12:04;;;;;;;2.42;1.50;;;;;;;10.28;73.66;99579.92;4100148;85;28662;-87
2021/04/14 09:18:09;;;;;;;3.87;1.30;;;;;;;12.29;61.18;99579.56;4149096;84;28591;-90
2021/04/14 09:24:28;;;;;;;2.52;1.57;;;;;;;9.14;82.83;99589.19;4135665;85;28591;-88
2021/04/14 09:30:50;;;;;;;3.80;1.60;;;;;;;10.38;70.22;99595.59;4119732;85;28667;-89
2021/04/14 09:37:17;;;;;;;2.62;1.67;;;;;;;10.79;68.17;99590.78;4124759;85;28549;-88
2021/04/14 09:43:31;;;;;;;1.87;1.07;;;;;;;10.36;76.15;99578.83;4143613;85;28624;-88
2021/04/14 09:49:41;;;;;;;4.05;1.50;;;;;;;12.44;60.14;99575.11;4130855;85;28617;-87
2021/04/14 09:55:59;;;;;;;3.70;2.20;;;;;;;10.93;65.05;99583.43;4060816;86;28640;-91
2021/04/14 10:02:15;;;;;;;3.15;1.55;;;;;;;9.31;70.04;99580.17;4599255;76;70503;-89
2021/04/14 10:08:18;;;;;;;4.60;1.98;;;;;;;10.15;70.64;99580.80;4375812;80;28599;-89
2021/04/14 10:14:25;;;;;;;3.00;1.50;;;;;;;10.54;66.71;99570.89;4361068;80;28580;-89
2021/04/14 10:20:35;;;;;;;4.40;1.70;;;;;;;11.50;59.14;99571.69;4360310;80;28614;-88
2021/04/14 10:26:54;;;;;;;3.70;1.90;;;;;;;11.20;62.24;99568.41;4380544;79;142934;-90
2021/04/14 10:33:25;;;;;;;4.50;1.77;;;;;;;11.07;60.31;99578.77;4321541;80;28557;-87
2021/04/14 10:39:33;;;;;;;4.45;1.85;;;;;;;10.08;64.99;99567.95;4294451;81;28627;-87
2021/04/14 10:45:35;;;;;;;3.75;1.72;;;;;;;10.59;60.85;99559.48;4311586;81;29032;-88
2021/04/14 10:51:50;;;;;;;3.17;1.67;;;;;;;10.95;58.86;99551.23;4302112;81;28574;-88
2021/04/14 10:58:00;;;;;;;3.75;1.80;;;;;;;12.03;55.20;99540.62;4308582;81;28586;-87
2021/04/14 11:04:13;;;;;;;5.20;2.10;;;;;;;11.10;54.35;99562.16;4332495;81;28588;-89
2021/04/14 11:10:24;;;;;;;4.33;2.40;;;;;;;9.31;64.04;99560.89;4326423;81;28651;-89
2021/04/14 11:16:27;;;;;;;4.90;2.50;;;;;;;10.01;60.64;99552.67;4283712;81;28641;-89
2021/04/14 11:22:49;;;;;;;3.75;2.47;;;;;;;10.59;58.20;99557.63;4203258;83;28669;-89
2021/04/14 11:28:55;;;;;;;6.08;2.92;;;;;;;11.05;56.18;99550.72;4167396;84;28630;-88
2021/04/14 11:35:02;;;;;;;4.40;2.90;;;;;;;11.16;56.51;99543.80;4212594;83;28601;-89
2021/04/14 11:41:18;;;;;;;5.17;3.00;;;;;;;11.90;55.04;99541.58;4256283;82;28599;-86
2021/04/14 11:47:34;;;;;;;6.12;3.20;;;;;;;10.94;57.16;99548.25;4528970;77;86202;-87
2021/04/14 11:53:48;;;;;;;5.47;3.33;;;;;;;12.28;52.91;99528.86;4457489;78;28572;-87
2021/04/14 12:00:08;;;;;;;6.58;3.70;;;;;;;12.54;52.28;99530.86;4459921;78;28615;-87
2021/04/14 12:06:11;;;;;;;5.35;3.83;;;;;;;12.17;53.86;99527.78;4435808;78;28544;-88
2021/04/14 12:12:13;;;;;;;6.67;3.45;;;;;;;12.29;51.90;99515.70;4465985;78;28677;-88
2021/04/14 12:18:17;;;;;;;5.00;3.40;;;;;;;12.72;52.32;99515.10;4438685;78;28620;-83
2021/04/14 12:24:19;;;;;;;7.25;3.77;;;;;;;13.85;47.55;99506.97;4457280;78;28636;-88
2021/04/14 12:30:25;;;;;;;5.78;3.50;;;;;;;13.47;46.29;99505.98;4444367;79;28630;-87
2021/04/14 12:36:29;;;;;;;5.03;3.30;;;;;;;13.64;47.07;99495.76;4446681;80;28553;-88
2021/04/14 12:42:32;;;;;;;7.58;3.95;;;;;;;12.10;48.82;99500.09;4433873;80;28604;-89
2021/04/14 12:48:43;;;;;;;6.33;3.85;;;;;;;11.10;52.52;99502.45;4449129;80;28671;-89
2021/04/14 12:54:49;;;;;;;7.33;4.20;;;;;;;11.11;53.92;99502.75;4434680;80;28602;-89
2021/04/14 13:00:51;;;;;;;5.58;3.10;;;;;;;11.54;54.54;99508.28;4438941;80;28589;-86
2021/04/14 13:07:02;;;;;;;5.78;3.60;;;;;;;11.59;56.83;99496.29;4452229;79;28635;-82
2021/04/14 13:13:04;;;;;;;7.58;3.60;;;;;;;10.72;57.85;99499.39;4427147;80;28636;-85
2021/04/14 13:19:06;;;;;;;7.05;3.15;;;;;;;11.40;56.26;99496.84;4452867;80;28569;-84
2021/04/14 13:25:30;;;;;;;6.35;4.03;;;;;;;13.05;49.84;99484.55;4451786;80;28564;-84
2021/04/14 13:31:44;;;;;;;6.93;3.33;;;;;;;13.10;49.97;99481.42;4438654;80;28601;-82
2021/04/14 13:38:03;;;;;;;4.90;3.00;;;;;;;12.30;53.78;99486.85;4420299;80;28622;-84
2021/04/14 13:44:53;;;;;;;4.67;2.83;;;;;;;12.83;50.10;99477.05;4427633;79;28570;-85
2021/04/14 13:51:12;;;;;;;5.50;2.87;;;;;;;12.06;53.19;99474.67;4386615;79;28638;-86
2021/04/14 13:57:32;;;;;;;4.90;2.40;;;;;;;11.88;52.97;99474.18;4412944;79;28541;-84
2021/04/14 14:03:35;;;;;;;3.42;2.30;;;;;;;11.67;52.24;99487.09;4380335;79;28561;-83
2021/04/14 14:09:47;;;;;;;4.78;2.67;;;;;;;11.11;56.34;99477.19;4404247;79;28606;-83
2021/04/14 14:16:13;;;;;;;5.58;2.67;;;;;;;11.63;54.24;99491.28;4409841;79;28624;-81
2021/04/14 14:22:21;;;;;;;6.47;2.77;;;;;;;10.35;60.28;99482.61;4408746;80;28587;-82
2021/04/14 14:28:23;;;;;;;4.40;2.30;;;;;;;11.07;58.50;99478.66;4412717;80;28544;-84
2021/04/14 14:34:31;;;;;;;4.92;2.92;;;;;;;11.56;57.72;99474.70;4419362;80;28604;-84
2021/04/14 14:40:35;;;;;;;5.95;3.55;;;;;;;10.87;61.44;99479.69;4313396;82;28576;-83
2021/04/14 14:46:43;;;;;;;5.78;3.60;;;;;;;10.99;62.69;99481.67;4288685;82;28621;-85
2021/04/14 14:52:47;;;;;;;7.10;3.83;;;;;;;10.92;62.82;99482.25;4299786;82;28657;-82
2021/04/14 14:58:49;;;;;;;7.37;3.80;;;;;;;11.96;56.65;99476.02;4296035;82;28621;-82
2021/04/14 15:04:52;;;;;;;9.30;4.58;;;;;;;12.62;55.59;99480.63;4286458;82;28629;-82
2021/04/14 15:10:58;;;;;;;6.53;3.80;;;;;;;11.28;61.85;99487.34;4302338;82;28574;-86
2021/04/14 15:17:00;;;;;;;5.60;3.43;;;;;;;11.32;60.18;99491.75;4305304;82;28612;-86
2021/04/14 15:23:02;;;;;;;6.72;4.17;;;;;;;11.11;61.39;99492.49;4278491;82;40073;-91
2021/04/14 15:29:05;;;;;;;4.58;3.30;;;;;;;11.97;59.06;99487.09;4289686;82;28591;-91
2021/04/14 15:35:13;;;;;;;5.45;2.60;;;;;;;10.19;66.83;99494.17;4179756;84;28681;-84
2021/04/14 15:41:21;;;;;;;4.22;2.40;;;;;;;11.18;62.84;99508.56;4285132;82;28619;-88
2021/04/14 15:47:28;;;;;;;4.50;2.00;;;;;;;10.00;68.72;99506.70;4305125;82;28573;-87
2021/04/14 15:53:30;;;;;;;5.92;3.15;;;;;;;11.36;59.16;99497.81;4278086;81;28624;-88
2021/04/14 15:59:32;;;;;;;4.37;2.58;;;;;;;10.99;62.53;99495.12;4302519;81;28603;-90
2021/04/14 16:05:35;;;;;;;8.05;2.67;;;;;;;10.43;66.12;99492.29;4240039;83;28572;-82
2021/04/14 16:11:38;;;;;;;4.10;2.37;;;;;;;9.84;71.02;99495.11;4240516;83;28653;-88
2021/04/14 16:17:40;;;;;;;4.30;2.37;;;;;;;10.02;68.03;99490.39;4259845;82;28604;-85
2021/04/14 16:23:45;;;;;;;5.80;2.83;;;;;;;10.38;65.58;99498.83;4275290;82;28653;-87
2021/04/14 16:29:49;;;;;;;5.08;2.92;;;;;;;10.14;69.07;99500.73;4273984;83;28632;-88
2021/04/14 16:35:53;;;;;;;4.45;2.70;;;;;;;10.11;69.83;99498.49;4279078;82;28665;-83
2021/04/14 16:41:56;;;;;;;5.83;2.98;;;;;;;10.29;67.17;99488.84;4278835;82;28574;-81
2021/04/14 16:48:00;;;;;;;4.72;2.72;;;;;;;10.47;65.35;99492.17;4305792;81;28593;-83
2021/04/14 16:54:04;;;;;;;6.75;2.98;;;;;;;11.00;62.50;99489.50;4285430;83;28576;-81
2021/04/14 17:00:10;;;;;;;5.22;2.75;;;;;;;10.65;63.85;99490.55;4275930;82;28609;-86
2021/04/14 17:06:12;;;;;;;5.65;2.47;;;;;;;11.69;57.77;99482.30;4293706;82;28649;-86
2021/04/14 17:12:17;;;;;;;6.72;3.60;;;;;;;11.44;58.96;99485.39;4289743;82;28634;-86
2021/04/14 17:18:24;;;;;;;6.83;3.70;;;;;;;10.42;65.86;99488.80;4288653;82;28601;-85
2021/04/14 17:24:28;;;;;;;6.78;3.65;;;;;;;11.95;57.20;99485.66;4287961;82;28585;-84
2021/04/14 17:30:33;;;;;;;7.60;3.47;;;;;;;10.90;61.27;99487.84;4284057;82;28604;-85
2021/04/14 17:36:38;;;;;;;8.70;4.80;;;;;;;11.51;58.84;99492.05;4285630;82;28565;-84
2021/04/14 17:42:40;;;;;;;8.40;4.62;;;;;;;10.73;61.97;99495.66;4270995;82;33956;-88
2021/04/14 17:48:45;;;;;;;8.75;4.78;;;;;;;10.45;65.38;99493.72;4282695;81;28586;-84
2021/04/14 17:54:48;;;;;;;9.18;5.67;;;;;;;10.05;68.52;99500.69;4334780;81;28577;-80
2021/04/14 18:00:52;;;;;;;9.65;5.42;;;;;;;10.42;67.07;99498.20;4329168;81;28631;-84
2021/04/14 18:06:54;;;;;;;9.15;5.37;;;;;;;10.18;67.69;99507.31;4340041;81;28582;-85
2021/04/14 18:12:57;;;;;;;11.78;6.65;;;;;;;11.05;62.88;99499.59;4333841;81;28573;-87
2021/04/14 18:19:01;;;;;;;12.60;6.15;;;;;;;11.36;61.01;99499.70;4316941;81;28583;-84
2021/04/14 18:25:06;;;;;;;9.35;5.72;;;;;;;11.19;62.33;99504.31;4318092;81;28661;-83
2021/04/14 18:31:13;;;;;;;7.12;4.37;;;;;;;10.70;66.20;99498.80;4369389;81;28594;-87
2021/04/14 18:37:15;;;;;;;11.88;5.00;;;;;;;10.09;70.61;99503.77;4328984;81;28582;-86
2021/04/14 18:43:18;;;;;;;9.40;5.00;;;;;;;10.57;66.54;99502.42;4298687;81;28574;-84
2021/04/14 18:49:21;;;;;;;8.60;5.08;;;;;;;9.68;73.37;99505.83;4320868;81;28589;-84
2021/04/14 18:55:26;;;;;;;11.78;5.35;;;;;;;10.49;67.02;99511.59;4378480;80;28636;-87
2021/04/14 19:01:29;;;;;;;;;;;;;;;10.72;67.00;99508.27;4362621;80;28607;-85
2021/04/14 19:07:33;;;;;;;9.38;5.37;;;;;;;11.30;61.02;99510.84;4327904;80;20222;-87
2021/04/14 19:13:36;;;;;;;8.40;5.87;;;;;;;10.04;69.69;99501.73;4364676;80;28629;-85
2021/04/14 19:19:40;;;;;;;7.85;5.12;;;;;;;10.34;68.99;99505.16;4378106;80;28552;-83
2021/04/14 19:25:45;;;;;;;9.60;5.30;;;;;;;10.82;66.47;99508.30;4352631;80;28623;-81
2021/04/14 19:31:47;;;;;;;9.47;4.90;;;;;;;11.16;63.44;99504.23;4341377;80;28605;-84
2021/04/14 19:37:50;;;;;;;8.68;4.83;;;;;;;10.47;67.19;99502.92;4349175;80;28990;-84
2021/04/14 19:43:52;;;;;;;8.85;5.10;;;;;;;10.61;66.49;99500.92;4328284;81;28615;-84
2021/04/14 19:49:54;;;;;;;8.63;4.60;;;;;;;10.72;65.64;99498.86;4336045;81;29003;-85
2021/04/14 19:55:57;;;;;;;7.62;4.20;;;;;;;10.65;66.31;99496.77;4340376;81;28927;-84
2021/04/14 20:01:59;;;;;;;7.37;4.75;;;;;;;10.79;64.74;99506.89;4365031;80;28617;-82
2021/04/14 20:08:03;;;;;;;7.78;4.87;;;;;;;10.81;65.08;99506.66;4315371;81;28622;-84
2021/04/14 20:14:05;;;;;;;7.72;4.58;;;;;;;10.65;65.63;99497.28;4316068;82;28627;-83
2021/04/14 20:20:09;;;;;;;7.20;4.62;;;;;;;10.86;64.93;99498.22;4316828;82;28573;-82
2021/04/14 20:26:11;;;;;;;6.33;4.10;;;;;;;10.35;68.96;99497.89;4314141;81;28596;-83
2021/04/14 20:32:14;;;;;;;7.67;4.50;;;;;;;11.06;62.30;99493.70;4308852;82;28600;-83
2021/04/14 20:38:16;;;;;;;7.62;5.12;;;;;;;10.71;65.14;99497.75;4309426;82;28661;-82
2021/04/14 20:44:19;;;;;;;6.10;4.60;;;;;;;11.62;59.29;99478.86;4355325;81;28644;-84
2021/04/14 20:50:26;;;;;;;9.13;5.15;;;;;;;11.68;58.86;99477.97;4355722;81;28648;-83
2021/04/14 20:56:32;;;;;;;10.43;5.90;;;;;;;11.48;60.77;99478.20;4322556;80;28643;-83
2021/04/14 21:02:35;;;;;;;13.60;6.85;;;;;;;11.72;59.40;99469.72;4370796;81;28568;-83
2021/04/14 21:08:37;;;;;;;14.47;8.28;;;;;;;11.88;59.06;99473.64;4369162;81;28625;-84
2021/04/14 21:14:39;;;;;;;17.05;8.93;;;;;;;11.61;60.64;99470.48;4363924;80;28680;-83
2021/04/14 21:20:41;;;;;;;16.00;9.10;;;;;;;11.47;62.77;99469.83;4281354;83;28582;-82
2021/04/14 21:26:43;;;;;;;15.58;8.43;;;;;;;10.85;65.79;99470.22;4307635;81;28596;-82
2021/04/14 21:32:45;;;;;;;15.20;8.75;;;;;;;11.43;64.17;99464.07;4312402;82;28666;-84
2021/04/14 21:38:48;;;;;;;12.73;7.33;;;;;;;11.20;65.08;99464.24;4308979;82;28589;-82
2021/04/14 21:44:50;;;;;;;12.10;6.92;;;;;;;11.05;65.70;99457.89;4323233;82;28653;-82
2021/04/14 21:50:52;;;;;;;14.98;9.00;;;;;;;11.30;63.78;99453.77;4248945;82;28703;-81
2021/04/14 21:56:54;;;;;;;14.15;7.05;;;;;;;11.01;66.38;99460.20;4238884;82;28603;-81
2021/04/14 22:02:58;;;;;;;16.97;8.65;;;;;;;10.97;68.50;99456.33;4276417;82;28589;-82
2021/04/14 22:09:00;;;;;;;12.37;6.83;;;;;;;11.04;68.28;99444.65;4254164;83;28600;-81
2021/04/14 22:15:04;;;;;;;10.13;5.60;;;;;;;10.23;73.01;99450.23;4262618;83;28634;-82
2021/04/14 22:21:07;;;;;;;7.92;5.03;;;;;;;10.45;74.55;99443.99;4262040;82;28574;-83
2021/04/14 22:27:08;;;;;;;8.70;5.37;;;;;;;10.68;70.65;99443.88;4263235;82;28566;-83
2021/04/14 22:33:14;;;;;;;11.97;6.75;;;;;;;10.65;73.69;99440.30;4266092;82;28589;-83
2021/04/14 22:39:16;;;;;;;10.50;4.97;;;;;;;10.90;72.53;99434.04;4249150;82;28679;-82
2021/04/14 22:45:19;;;;;;;13.25;7.50;;;;;;;11.27;69.70;99425.13;4250766;82;28748;-82
2021/04/14 22:51:22;;;;;;;13.98;7.20;;;;;;;11.28;69.93;99425.43;4259223;83;29636;-83
2021/04/14 22:57:24;;;;;;;11.83;6.70;;;;;;;11.26;70.32;99427.53;4261252;82;28622;-83
2021/04/14 23:03:30;;;;;;;11.63;6.72;;;;;;;11.00;70.50;99431.65;4271136;82;28611;-81
2021/04/14 23:09:32;;;;;;;10.33;5.57;;;;;;;11.62;66.66;99425.84;4255408;83;28647;-82
2021/04/14 23:15:34;;;;;;;9.10;4.95;;;;;;;10.08;78.58;99426.36;4259992;83;28627;-82
2021/04/14 23:21:37;;;;;;;9.33;4.78;;;;;;;10.76;72.88;99425.83;4257029;83;28626;-83
2021/04/14 23:27:39;;;;;;;7.35;4.75;;;;;;;10.87;71.12;99421.05;4258462;82;28619;-82
2021/04/14 23:33:42;;;;;;;7.20;4.67;;;;;;;10.44;74.32;99418.66;4256347;83;28584;-82
2021/04/14 23:39:44;;;;;;;8.68;4.47;;;;;;;10.32;75.38;99415.86;4240168;83;28596;-81
2021/04/14 23:45:46;;;;;;;8.45;5.08;;;;;;;10.32;76.68;99411.83;4260080;82;28647;-82
2021/04/14 23:51:49;;;;;;;9.35;4.58;;;;;;;10.54;74.58;99408.23;4324126;82;28586;-83
2021/04/14 23:57:51;;;;;;;5.80;3.40;;;;;;;9.91;78.54;99413.99;4305302;82;28601;-82
